createdAt,value
2022-11-24T00:03:42.139Z,-2.1
2022-11-24T00:08:48.343Z,-1.4
2022-11-24T00:13:54.538Z,-1.6
2022-11-24T00:19:00.747Z,-1.9
2022-11-24T00:24:06.920Z,-1.7
2022-11-24T00:29:12.236Z,-1.4
2022-11-24T00:34:18.365Z,-1.4
2022-11-24T00:39:23.621Z,-1.7
2022-11-24T00:44:29.847Z,-1.7
2022-11-24T00:49:36.021Z,-1.8
2022-11-24T00:54:42.201Z,-1.9
2022-11-24T00:59:48.396Z,-2
2022-11-24T01:04:54.604Z,-2.1
2022-11-24T01:10:00.796Z,-2.1
2022-11-24T01:15:06.992Z,-2.1
2022-11-24T01:20:13.170Z,-2.2
2022-11-24T01:25:19.372Z,-2
2022-11-24T01:30:25.560Z,-2
2022-11-24T01:35:31.749Z,-2.1
2022-11-24T01:40:37.941Z,-2.2
2022-11-24T01:45:44.163Z,-2.3
2022-11-24T01:50:50.356Z,-2.5
2022-11-24T01:55:56.541Z,-2.6
2022-11-24T02:01:02.746Z,-2.6
2022-11-24T02:06:08.009Z,-2.5
2022-11-24T02:11:14.201Z,-2.5
2022-11-24T02:16:20.396Z,-2.6
2022-11-24T02:21:25.693Z,-2.7
2022-11-24T02:26:31.840Z,-2.5
2022-11-24T02:31:38.024Z,-2.1
2022-11-24T02:36:44.231Z,-1.9
2022-11-24T02:41:50.413Z,-1.5
2022-11-24T02:46:56.598Z,-1.4
2022-11-24T02:52:02.835Z,-1.4
2022-11-24T02:57:08.993Z,-1.6
2022-11-24T03:02:15.211Z,-1.7
2022-11-24T03:07:21.400Z,-1.7
2022-11-24T03:12:27.578Z,-1.9
2022-11-24T03:17:33.795Z,-1.8
2022-11-24T03:22:39.979Z,-1.9
2022-11-24T03:27:46.170Z,-1.8
2022-11-24T03:32:52.372Z,-1.9
2022-11-24T03:37:57.585Z,-1.8
2022-11-24T03:43:03.800Z,-1.3
2022-11-24T03:48:10.008Z,-1.5
2022-11-24T03:53:16.168Z,-1.5
2022-11-24T03:58:22.370Z,-1.2
2022-11-24T04:03:28.576Z,-1.2
2022-11-24T04:08:34.767Z,-0.9
2022-11-24T04:13:40.978Z,-0.7
2022-11-24T04:18:47.156Z,-0.5
2022-11-24T04:23:53.343Z,-0.4
2022-11-24T04:28:59.529Z,-0.5
2022-11-24T04:34:05.733Z,-0.6
2022-11-24T04:39:19.058Z,-0.7
2022-11-24T04:44:18.115Z,-0.7
2022-11-24T04:49:24.330Z,-0.6
2022-11-24T04:54:30.501Z,-0.5
2022-11-24T04:59:36.702Z,-0.4
2022-11-24T05:04:42.909Z,-0.3
2022-11-24T05:09:49.090Z,-0.2
2022-11-24T05:14:55.282Z,-0.2
2022-11-24T05:20:01.481Z,-0.2
2022-11-24T05:25:06.714Z,-0.2
2022-11-24T05:30:12.917Z,-0.2
2022-11-24T05:35:19.111Z,-0.1
2022-11-24T05:40:25.288Z,-0.1
2022-11-24T05:45:31.492Z,-0.1
2022-11-24T05:50:37.680Z,0
2022-11-24T05:55:43.876Z,-0.1
2022-11-24T06:00:50.073Z,-0.1
2022-11-24T06:05:56.264Z,0
2022-11-24T06:11:02.468Z,0
2022-11-24T06:16:08.645Z,0
2022-11-24T06:21:14.847Z,-0.1
2022-11-24T06:26:21.034Z,0
2022-11-24T06:31:27.220Z,0
2022-11-24T06:36:33.448Z,0
2022-11-24T06:41:38.663Z,0
2022-11-24T06:46:44.911Z,0
2022-11-24T06:51:51.110Z,-0.1
2022-11-24T06:56:57.301Z,-0.1
2022-11-24T07:02:03.588Z,-0.1
2022-11-24T07:07:09.804Z,-0.1
2022-11-24T07:12:15.906Z,0
2022-11-24T07:17:22.083Z,0
2022-11-24T07:22:28.257Z,0.1
2022-11-24T07:27:34.459Z,0.2
2022-11-24T07:32:40.640Z,0.4
2022-11-24T07:37:46.847Z,0.5
2022-11-24T07:42:53.031Z,0.5
2022-11-24T07:47:59.228Z,0.6
2022-11-24T07:53:05.504Z,0.7
2022-11-24T07:58:11.599Z,0.7
2022-11-24T08:03:16.941Z,0.8
2022-11-24T08:08:23.065Z,0.9
2022-11-24T08:13:29.244Z,1
2022-11-24T08:18:35.431Z,1.2
2022-11-24T08:23:41.616Z,1.3
2022-11-24T08:28:47.852Z,1.3
2022-11-24T08:33:53.993Z,1.6
2022-11-24T08:39:00.206Z,1.9
2022-11-24T08:44:06.411Z,2.1
2022-11-24T08:49:12.754Z,2.2
2022-11-24T08:54:18.808Z,2.3
2022-11-24T08:59:25.096Z,2.3
2022-11-24T09:04:31.218Z,2.3
2022-11-24T09:09:36.390Z,2.4
2022-11-24T09:14:42.614Z,2.6
2022-11-24T09:19:48.769Z,2.8
2022-11-24T09:24:54.964Z,3
2022-11-24T09:30:01.297Z,3.1
2022-11-24T09:35:07.371Z,3.3
2022-11-24T09:40:13.678Z,3.4
2022-11-24T09:45:19.794Z,3.5
2022-11-24T09:50:26.140Z,3.6
2022-11-24T09:55:32.131Z,3.6
2022-11-24T10:00:38.313Z,3.8
2022-11-24T10:05:44.525Z,3.9
2022-11-24T10:10:50.750Z,4
2022-11-24T10:15:56.900Z,4.1
2022-11-24T10:21:02.206Z,4
2022-11-24T10:26:08.329Z,4.2
2022-11-24T10:31:14.575Z,4.2
2022-11-24T10:36:20.826Z,4.2
2022-11-24T10:41:27.098Z,4.5
2022-11-24T10:46:33.190Z,4.5
2022-11-24T10:51:39.355Z,4.5
2022-11-24T10:56:45.553Z,4.5
2022-11-24T11:01:51.753Z,4.5
2022-11-24T11:06:57.929Z,4.5
2022-11-24T11:12:04.105Z,4.6
2022-11-24T11:17:10.313Z,4.9
2022-11-24T11:22:16.514Z,5.4
2022-11-24T11:27:22.668Z,5.8
2022-11-24T11:32:28.862Z,5.8
2022-11-24T11:37:35.065Z,6.1
2022-11-24T11:42:41.264Z,6
2022-11-24T11:47:46.490Z,6
2022-11-24T11:52:52.681Z,6.2
2022-11-24T11:57:59.074Z,6.2
2022-11-24T12:03:05.093Z,6.3
2022-11-24T12:08:11.361Z,6.1
2022-11-24T12:13:17.439Z,6.2
2022-11-24T12:18:23.650Z,6.1
2022-11-24T12:23:29.903Z,6.1
2022-11-24T12:28:36.116Z,5.9
2022-11-24T12:33:42.348Z,5.8
2022-11-24T12:38:48.431Z,5.8
2022-11-24T12:43:54.578Z,5.8
2022-11-24T12:49:00.774Z,5.9
2022-11-24T12:54:06.017Z,6
2022-11-24T12:59:12.327Z,6.1
2022-11-24T13:04:18.570Z,6.1
2022-11-24T13:09:24.713Z,6.1
2022-11-24T13:14:33.963Z,6.2
2022-11-24T13:19:37.114Z,6.2
2022-11-24T13:24:43.194Z,6.3
2022-11-24T13:29:49.501Z,6.2
2022-11-24T13:34:55.701Z,6.2
2022-11-24T13:40:01.814Z,6.2
2022-11-24T13:45:08.137Z,6.2
2022-11-24T13:50:14.091Z,6.2
2022-11-24T13:55:20.461Z,6
2022-11-24T14:00:26.667Z,5.9
2022-11-24T14:05:32.833Z,6
2022-11-24T14:10:39.047Z,5.9
2022-11-24T14:15:45.205Z,5.9
2022-11-24T14:20:51.496Z,5.8
2022-11-24T14:25:57.590Z,5.8
2022-11-24T14:31:03.823Z,5.7
2022-11-24T14:36:09.932Z,5.6
2022-11-24T14:41:16.225Z,5.5
2022-11-24T14:46:22.238Z,5.4
2022-11-24T14:51:28.477Z,5.4
2022-11-24T14:56:34.729Z,5.4
2022-11-24T15:01:40.750Z,5.4
2022-11-24T15:06:47.081Z,5.3
2022-11-24T15:11:53.278Z,5.3
2022-11-24T15:16:59.342Z,5.3
2022-11-24T15:22:05.661Z,5.3
2022-11-24T15:27:11.802Z,5.3
2022-11-24T15:32:17.898Z,5.2
2022-11-24T15:37:24.210Z,5.1
2022-11-24T15:42:30.373Z,5
2022-11-24T15:47:36.584Z,4.9
2022-11-24T15:52:42.719Z,4.6
2022-11-24T15:57:49.062Z,4.5
2022-11-24T16:02:55.290Z,4.5
2022-11-24T16:08:01.514Z,4.5
2022-11-24T16:13:07.935Z,4.5
2022-11-24T16:18:14.241Z,4.4
2022-11-24T16:23:20.478Z,4.4
2022-11-24T16:28:26.877Z,4.4
2022-11-24T16:33:33.154Z,4.5
2022-11-24T16:38:39.649Z,4.5
2022-11-24T16:43:45.830Z,4.5
2022-11-24T16:48:52.170Z,4.5
2022-11-24T16:53:58.424Z,4.6
2022-11-24T16:59:04.815Z,4.5
2022-11-24T17:04:11.067Z,4.5
2022-11-24T17:09:17.770Z,4.5
2022-11-24T17:14:23.575Z,4.5
2022-11-24T17:19:30.136Z,4.6
2022-11-24T17:24:36.845Z,4.5
2022-11-24T17:29:43.235Z,4.5
2022-11-24T17:34:49.783Z,4.4
2022-11-24T17:39:56.348Z,4.5
2022-11-24T17:45:02.964Z,4.5
2022-11-24T17:50:09.475Z,4.5
2022-11-24T17:55:16.094Z,4.4
2022-11-24T18:00:22.665Z,4.4
2022-11-24T18:05:29.400Z,4.3
2022-11-24T18:10:35.803Z,4.3
2022-11-24T18:15:42.492Z,4.2
2022-11-24T18:20:48.896Z,4.2
2022-11-24T18:25:55.679Z,4.2
2022-11-24T18:31:02.146Z,4.2
2022-11-24T18:36:08.021Z,4.2
2022-11-24T18:41:14.466Z,4.2
2022-11-24T18:46:21.123Z,4.1
2022-11-24T18:51:27.591Z,3.9
2022-11-24T18:56:34.220Z,3.9
2022-11-24T19:01:40.755Z,3.8
2022-11-24T19:06:47.463Z,3.8
2022-11-24T19:11:54.024Z,3.8
2022-11-24T19:17:00.602Z,3.8
2022-11-24T19:22:07.049Z,3.8
2022-11-24T19:27:13.740Z,3.7
2022-11-24T19:32:20.274Z,3.7
2022-11-24T19:37:26.826Z,3.7
2022-11-24T19:42:33.359Z,3.7
2022-11-24T19:47:39.979Z,3.6
2022-11-24T19:52:46.482Z,3.6
2022-11-24T19:57:53.031Z,3.5
2022-11-24T20:02:59.614Z,3.6
2022-11-24T20:08:06.172Z,3.6
2022-11-24T20:13:12.072Z,3.5
2022-11-24T20:18:18.652Z,3.5
2022-11-24T20:23:25.157Z,3.5
2022-11-24T20:33:38.327Z,3.6
2022-11-24T20:38:44.971Z,3.5
2022-11-24T20:48:58.076Z,3.4
2022-11-24T20:54:04.712Z,3.5
2022-11-24T20:59:11.171Z,3.5
2022-11-24T21:04:17.740Z,3.5
2022-11-24T21:09:24.329Z,3.5
2022-11-24T21:19:37.502Z,3.6
2022-11-24T21:24:43.381Z,3.6
2022-11-24T21:34:56.521Z,3.6
2022-11-24T21:40:03.024Z,3.5
2022-11-24T21:50:15.506Z,3.5
2022-11-24T21:55:22.024Z,3.5
2022-11-24T22:00:28.580Z,3.3
2022-11-24T22:05:35.154Z,3.3
2022-11-24T22:10:41.725Z,3.4
2022-11-24T22:15:48.343Z,3.5
2022-11-24T22:20:54.869Z,3.5
2022-11-24T22:26:01.457Z,3.7
2022-11-24T22:31:08.072Z,3.7
2022-11-24T22:36:14.642Z,3.7
2022-11-24T22:41:21.247Z,3.7
2022-11-24T22:51:34.432Z,3.5
2022-11-24T22:56:40.230Z,3.3
2022-11-24T23:06:53.350Z,2.7
2022-11-24T23:12:00.056Z,2.6
2022-11-24T23:22:12.335Z,2.1
2022-11-24T23:27:18.887Z,2.1
2022-11-24T23:32:25.449Z,1.9
2022-11-24T23:37:32.044Z,1.6
2022-11-24T23:42:38.596Z,1.6
2022-11-24T23:52:51.749Z,1.5
2022-11-24T23:57:58.309Z,1.5
